sensor_id;sensor_type;location;lat;lon;timestamp;P1;durP1;ratioP1;P2;durP2;ratioP2
74223;SDS011;62585;49.706;18.216;2023-04-01T00:00:18;1.00;;;0.90;;
74223;SDS011;62585;49.706;18.216;2023-04-01T00:03:05;0.57;;;0.30;;
74223;SDS011;62585;49.706;18.216;2023-04-01T00:05:30;1.00;;;0.52;;
74223;SDS011;62585;49.706;18.216;2023-04-01T00:07:56;2.30;;;0.82;;
74223;SDS011;62585;49.706;18.216;2023-04-01T00:10:22;0.93;;;0.73;;
74223;SDS011;62585;49.706;18.216;2023-04-01T00:12:47;1.08;;;0.43;;
74223;SDS011;62585;49.706;18.216;2023-04-01T00:15:13;0.47;;;0.35;;
74223;SDS011;62585;49.706;18.216;2023-04-01T00:17:39;2.10;;;0.52;;
74223;SDS011;62585;49.706;18.216;2023-04-01T00:20:05;2.00;;;0.88;;
74223;SDS011;62585;49.706;18.216;2023-04-01T00:22:32;0.93;;;0.50;;
74223;SDS011;62585;49.706;18.216;2023-04-01T00:24:59;0.52;;;0.52;;
74223;SDS011;62585;49.706;18.216;2023-04-01T00:27:25;1.85;;;0.70;;
74223;SDS011;62585;49.706;18.216;2023-04-01T00:29:51;1.85;;;1.08;;
74223;SDS011;62585;49.706;18.216;2023-04-01T00:32:17;1.48;;;0.80;;
74223;SDS011;62585;49.706;18.216;2023-04-01T00:34:42;1.00;;;0.68;;
74223;SDS011;62585;49.706;18.216;2023-04-01T00:37:09;4.40;;;0.85;;
74223;SDS011;62585;49.706;18.216;2023-04-01T00:39:36;4.82;;;1.05;;
74223;SDS011;62585;49.706;18.216;2023-04-01T00:42:03;2.47;;;0.85;;
74223;SDS011;62585;49.706;18.216;2023-04-01T00:44:30;1.60;;;0.65;;
74223;SDS011;62585;49.706;18.216;2023-04-01T00:46:58;2.45;;;0.73;;
74223;SDS011;62585;49.706;18.216;2023-04-01T00:49:32;1.92;;;1.40;;
74223;SDS011;62585;49.706;18.216;2023-04-01T00:52:02;1.17;;;0.50;;
74223;SDS011;62585;49.706;18.216;2023-04-01T00:54:30;1.52;;;0.60;;
74223;SDS011;62585;49.706;18.216;2023-04-01T00:59:32;13.40;;;2.08;;
74223;SDS011;62585;49.706;18.216;2023-04-01T01:02:05;5.75;;;2.25;;
74223;SDS011;62585;49.706;18.216;2023-04-01T01:04:34;1.85;;;1.10;;
74223;SDS011;62585;49.706;18.216;2023-04-01T01:12:14;2.45;;;1.30;;
74223;SDS011;62585;49.706;18.216;2023-04-01T01:23:55;2.45;;;0.90;;
74223;SDS011;62585;49.706;18.216;2023-04-01T01:26:40;1.35;;;0.93;;
74223;SDS011;62585;49.706;18.216;2023-04-01T01:30:07;0.95;;;0.50;;
74223;SDS011;62585;49.706;18.216;2023-04-01T01:35:28;1.48;;;0.90;;
74223;SDS011;62585;49.706;18.216;2023-04-01T01:38:00;0.93;;;0.47;;
74223;SDS011;62585;49.706;18.216;2023-04-01T01:40:32;0.70;;;0.50;;
74223;SDS011;62585;49.706;18.216;2023-04-01T01:43:00;0.77;;;0.65;;
74223;SDS011;62585;49.706;18.216;2023-04-01T01:45:32;2.08;;;0.77;;
74223;SDS011;62585;49.706;18.216;2023-04-01T01:48:01;0.63;;;0.63;;
74223;SDS011;62585;49.706;18.216;2023-04-01T01:50:30;1.13;;;0.50;;
74223;SDS011;62585;49.706;18.216;2023-04-01T01:53:03;2.78;;;0.60;;
74223;SDS011;62585;49.706;18.216;2023-04-01T01:55:32;1.40;;;0.75;;
74223;SDS011;62585;49.706;18.216;2023-04-01T01:57:59;1.60;;;1.08;;
74223;SDS011;62585;49.706;18.216;2023-04-01T02:00:30;3.15;;;0.68;;
74223;SDS011;62585;49.706;18.216;2023-04-01T02:02:56;0.60;;;0.40;;
74223;SDS011;62585;49.706;18.216;2023-04-01T02:05:24;1.05;;;0.77;;
74223;SDS011;62585;49.706;18.216;2023-04-01T02:08:01;6.85;;;2.17;;
74223;SDS011;62585;49.706;18.216;2023-04-01T02:13:09;0.47;;;0.47;;
74223;SDS011;62585;49.706;18.216;2023-04-01T02:15:44;1.70;;;1.38;;
74223;SDS011;62585;49.706;18.216;2023-04-01T02:18:12;1.02;;;0.65;;
74223;SDS011;62585;49.706;18.216;2023-04-01T02:20:39;0.55;;;0.52;;
74223;SDS011;62585;49.706;18.216;2023-04-01T02:23:07;1.35;;;1.00;;
74223;SDS011;62585;49.706;18.216;2023-04-01T02:25:35;0.65;;;0.60;;
74223;SDS011;62585;49.706;18.216;2023-04-01T02:28:04;1.90;;;0.57;;
74223;SDS011;62585;49.706;18.216;2023-04-01T02:30:33;1.98;;;1.00;;
74223;SDS011;62585;49.706;18.216;2023-04-01T02:33:00;0.85;;;0.40;;
74223;SDS011;62585;49.706;18.216;2023-04-01T02:35:27;0.85;;;0.52;;
74223;SDS011;62585;49.706;18.216;2023-04-01T02:37:54;0.70;;;0.43;;
74223;SDS011;62585;49.706;18.216;2023-04-01T02:40:20;1.35;;;0.55;;
74223;SDS011;62585;49.706;18.216;2023-04-01T02:42:46;2.00;;;1.25;;
74223;SDS011;62585;49.706;18.216;2023-04-01T02:45:12;1.00;;;0.40;;
74223;SDS011;62585;49.706;18.216;2023-04-01T02:47:38;1.08;;;0.40;;
74223;SDS011;62585;49.706;18.216;2023-04-01T02:50:05;1.35;;;0.90;;
74223;SDS011;62585;49.706;18.216;2023-04-01T02:52:31;0.32;;;0.30;;
74223;SDS011;62585;49.706;18.216;2023-04-01T02:54:57;0.55;;;0.55;;
74223;SDS011;62585;49.706;18.216;2023-04-01T02:57:23;0.85;;;0.60;;
74223;SDS011;62585;49.706;18.216;2023-04-01T02:59:50;0.93;;;0.60;;
74223;SDS011;62585;49.706;18.216;2023-04-01T03:02:16;1.65;;;0.65;;
74223;SDS011;62585;49.706;18.216;2023-04-01T03:04:42;3.80;;;0.82;;
74223;SDS011;62585;49.706;18.216;2023-04-01T03:07:08;0.90;;;0.40;;
74223;SDS011;62585;49.706;18.216;2023-04-01T03:09:35;1.13;;;0.90;;
74223;SDS011;62585;49.706;18.216;2023-04-01T03:12:02;2.00;;;0.60;;
74223;SDS011;62585;49.706;18.216;2023-04-01T03:14:28;3.53;;;1.02;;
74223;SDS011;62585;49.706;18.216;2023-04-01T03:16:53;2.42;;;0.60;;
74223;SDS011;62585;49.706;18.216;2023-04-01T03:19:20;1.98;;;0.85;;
74223;SDS011;62585;49.706;18.216;2023-04-01T03:21:45;1.35;;;0.30;;
74223;SDS011;62585;49.706;18.216;2023-04-01T03:24:11;0.70;;;0.50;;
74223;SDS011;62585;49.706;18.216;2023-04-01T03:26:37;1.15;;;0.90;;
74223;SDS011;62585;49.706;18.216;2023-04-01T03:29:02;1.02;;;0.60;;
74223;SDS011;62585;49.706;18.216;2023-04-01T03:31:28;1.20;;;0.75;;
74223;SDS011;62585;49.706;18.216;2023-04-01T03:33:54;1.20;;;0.90;;
74223;SDS011;62585;49.706;18.216;2023-04-01T03:36:20;0.68;;;0.60;;
74223;SDS011;62585;49.706;18.216;2023-04-01T03:38:46;0.40;;;0.20;;
74223;SDS011;62585;49.706;18.216;2023-04-01T03:41:16;0.80;;;0.32;;
74223;SDS011;62585;49.706;18.216;2023-04-01T03:43:42;0.80;;;0.50;;
74223;SDS011;62585;49.706;18.216;2023-04-01T03:46:09;0.68;;;0.30;;
74223;SDS011;62585;49.706;18.216;2023-04-01T03:48:35;0.45;;;0.20;;
74223;SDS011;62585;49.706;18.216;2023-04-01T03:51:00;0.73;;;0.73;;
74223;SDS011;62585;49.706;18.216;2023-04-01T03:53:26;1.67;;;1.13;;
74223;SDS011;62585;49.706;18.216;2023-04-01T03:55:52;3.33;;;0.65;;
74223;SDS011;62585;49.706;18.216;2023-04-01T03:58:18;1.10;;;0.30;;
74223;SDS011;62585;49.706;18.216;2023-04-01T04:00:45;1.25;;;0.88;;
74223;SDS011;62585;49.706;18.216;2023-04-01T04:03:11;0.43;;;0.38;;
74223;SDS011;62585;49.706;18.216;2023-04-01T04:05:37;1.13;;;0.63;;
74223;SDS011;62585;49.706;18.216;2023-04-01T04:08:02;0.40;;;0.40;;
74223;SDS011;62585;49.706;18.216;2023-04-01T04:10:29;4.13;;;1.92;;
74223;SDS011;62585;49.706;18.216;2023-04-01T04:12:54;8.82;;;0.93;;
74223;SDS011;62585;49.706;18.216;2023-04-01T04:15:21;4.90;;;1.13;;
74223;SDS011;62585;49.706;18.216;2023-04-01T04:17:47;2.22;;;0.57;;
74223;SDS011;62585;49.706;18.216;2023-04-01T04:20:13;0.93;;;0.63;;
74223;SDS011;62585;49.706;18.216;2023-04-01T04:22:39;3.00;;;0.90;;
74223;SDS011;62585;49.706;18.216;2023-04-01T04:25:05;1.55;;;0.35;;
74223;SDS011;62585;49.706;18.216;2023-04-01T04:27:31;8.02;;;0.82;;
74223;SDS011;62585;49.706;18.216;2023-04-01T04:29:58;0.30;;;0.28;;
74223;SDS011;62585;49.706;18.216;2023-04-01T04:32:23;2.03;;;1.20;;
74223;SDS011;62585;49.706;18.216;2023-04-01T04:34:49;1.48;;;0.52;;
74223;SDS011;62585;49.706;18.216;2023-04-01T04:37:15;4.05;;;0.75;;
74223;SDS011;62585;49.706;18.216;2023-04-01T04:39:41;0.82;;;0.60;;
74223;SDS011;62585;49.706;18.216;2023-04-01T04:42:06;0.90;;;0.63;;
74223;SDS011;62585;49.706;18.216;2023-04-01T04:44:32;0.63;;;0.60;;
74223;SDS011;62585;49.706;18.216;2023-04-01T04:46:58;1.13;;;0.63;;
74223;SDS011;62585;49.706;18.216;2023-04-01T04:49:24;0.60;;;0.60;;
74223;SDS011;62585;49.706;18.216;2023-04-01T04:51:49;1.15;;;0.60;;
74223;SDS011;62585;49.706;18.216;2023-04-01T04:54:15;1.33;;;0.38;;
74223;SDS011;62585;49.706;18.216;2023-04-01T04:56:41;1.25;;;0.40;;
74223;SDS011;62585;49.706;18.216;2023-04-01T04:59:07;0.82;;;0.50;;
74223;SDS011;62585;49.706;18.216;2023-04-01T05:01:32;1.42;;;0.63;;
74223;SDS011;62585;49.706;18.216;2023-04-01T05:03:59;4.85;;;0.98;;
74223;SDS011;62585;49.706;18.216;2023-04-01T05:06:24;1.30;;;1.15;;
74223;SDS011;62585;49.706;18.216;2023-04-01T05:08:51;0.88;;;0.60;;
74223;SDS011;62585;49.706;18.216;2023-04-01T05:11:17;2.17;;;1.10;;
74223;SDS011;62585;49.706;18.216;2023-04-01T05:13:45;2.30;;;1.02;;
74223;SDS011;62585;49.706;18.216;2023-04-01T05:16:12;4.47;;;0.73;;
74223;SDS011;62585;49.706;18.216;2023-04-01T05:18:42;1.77;;;0.90;;
74223;SDS011;62585;49.706;18.216;2023-04-01T05:21:09;2.10;;;1.60;;
74223;SDS011;62585;49.706;18.216;2023-04-01T05:23:36;1.98;;;0.60;;
74223;SDS011;62585;49.706;18.216;2023-04-01T05:26:06;1.45;;;0.70;;
74223;SDS011;62585;49.706;18.216;2023-04-01T05:28:33;0.38;;;0.38;;
74223;SDS011;62585;49.706;18.216;2023-04-01T05:30:59;0.63;;;0.55;;
74223;SDS011;62585;49.706;18.216;2023-04-01T05:35:52;0.63;;;0.50;;
74223;SDS011;62585;49.706;18.216;2023-04-01T05:38:19;1.48;;;0.52;;
74223;SDS011;62585;49.706;18.216;2023-04-01T05:40:45;3.50;;;0.90;;
74223;SDS011;62585;49.706;18.216;2023-04-01T05:43:11;0.82;;;0.60;;
74223;SDS011;62585;49.706;18.216;2023-04-01T05:45:37;0.80;;;0.55;;
74223;SDS011;62585;49.706;18.216;2023-04-01T05:48:03;0.50;;;0.50;;
74223;SDS011;62585;49.706;18.216;2023-04-01T05:50:29;1.58;;;0.80;;
74223;SDS011;62585;49.706;18.216;2023-04-01T05:52:55;1.88;;;1.48;;
74223;SDS011;62585;49.706;18.216;2023-04-01T05:55:21;2.13;;;1.02;;
74223;SDS011;62585;49.706;18.216;2023-04-01T05:57:46;1.17;;;0.70;;
74223;SDS011;62585;49.706;18.216;2023-04-01T06:00:15;1.88;;;0.95;;
74223;SDS011;62585;49.706;18.216;2023-04-01T06:02:41;0.55;;;0.35;;
74223;SDS011;62585;49.706;18.216;2023-04-01T06:05:21;0.77;;;0.60;;
74223;SDS011;62585;49.706;18.216;2023-04-01T06:07:50;1.13;;;0.63;;
74223;SDS011;62585;49.706;18.216;2023-04-01T06:10:20;0.95;;;0.63;;
74223;SDS011;62585;49.706;18.216;2023-04-01T06:13:00;1.45;;;0.68;;
74223;SDS011;62585;49.706;18.216;2023-04-01T06:26:12;2.03;;;1.02;;
74223;SDS011;62585;49.706;18.216;2023-04-01T06:28:57;0.73;;;0.63;;
74223;SDS011;62585;49.706;18.216;2023-04-01T06:31:46;1.23;;;0.57;;
74223;SDS011;62585;49.706;18.216;2023-04-01T06:39:59;3.30;;;1.05;;
74223;SDS011;62585;49.706;18.216;2023-04-01T06:56:14;0.47;;;0.47;;
74223;SDS011;62585;49.706;18.216;2023-04-01T06:58:48;0.70;;;0.47;;
74223;SDS011;62585;49.706;18.216;2023-04-01T07:01:22;0.65;;;0.63;;
74223;SDS011;62585;49.706;18.216;2023-04-01T07:09:25;0.80;;;0.60;;
74223;SDS011;62585;49.706;18.216;2023-04-01T07:11:58;0.90;;;0.60;;
74223;SDS011;62585;49.706;18.216;2023-04-01T07:14:37;0.90;;;0.57;;
74223;SDS011;62585;49.706;18.216;2023-04-01T07:17:08;1.63;;;1.00;;
74223;SDS011;62585;49.706;18.216;2023-04-01T07:22:35;0.95;;;0.55;;
74223;SDS011;62585;49.706;18.216;2023-04-01T07:27:52;1.98;;;0.77;;
74223;SDS011;62585;49.706;18.216;2023-04-01T07:30:52;4.45;;;0.73;;
74223;SDS011;62585;49.706;18.216;2023-04-01T07:36:37;6.22;;;1.42;;
74223;SDS011;62585;49.706;18.216;2023-04-01T07:58:14;1.08;;;0.68;;
74223;SDS011;62585;49.706;18.216;2023-04-01T08:00:48;0.93;;;0.73;;
74223;SDS011;62585;49.706;18.216;2023-04-01T08:09:22;0.85;;;0.80;;
74223;SDS011;62585;49.706;18.216;2023-04-01T08:12:01;1.65;;;0.90;;
74223;SDS011;62585;49.706;18.216;2023-04-01T08:22:46;0.77;;;0.70;;
74223;SDS011;62585;49.706;18.216;2023-04-01T08:25:23;0.65;;;0.60;;
74223;SDS011;62585;49.706;18.216;2023-04-01T08:27:53;1.25;;;0.70;;
74223;SDS011;62585;49.706;18.216;2023-04-01T08:30:25;1.45;;;0.65;;
74223;SDS011;62585;49.706;18.216;2023-04-01T08:33:15;1.02;;;0.70;;
74223;SDS011;62585;49.706;18.216;2023-04-01T08:35:51;1.13;;;0.65;;
74223;SDS011;62585;49.706;18.216;2023-04-01T09:26:00;1.27;;;0.63;;
74223;SDS011;62585;49.706;18.216;2023-04-01T09:29:02;1.95;;;0.75;;
74223;SDS011;62585;49.706;18.216;2023-04-01T09:37:36;1.08;;;0.63;;
74223;SDS011;62585;49.706;18.216;2023-04-01T09:46:04;1.02;;;0.80;;
74223;SDS011;62585;49.706;18.216;2023-04-01T09:48:40;0.98;;;0.80;;
74223;SDS011;62585;49.706;18.216;2023-04-01T10:05:32;3.10;;;1.00;;
74223;SDS011;62585;49.706;18.216;2023-04-01T10:33:19;3.42;;;1.50;;
74223;SDS011;62585;49.706;18.216;2023-04-01T10:50:26;1.17;;;0.98;;
74223;SDS011;62585;49.706;18.216;2023-04-01T11:05:34;1.90;;;1.13;;
74223;SDS011;62585;49.706;18.216;2023-04-01T11:16:53;1.90;;;0.80;;
74223;SDS011;62585;49.706;18.216;2023-04-01T11:25:09;2.05;;;0.60;;
74223;SDS011;62585;49.706;18.216;2023-04-01T11:30:53;0.40;;;0.40;;
74223;SDS011;62585;49.706;18.216;2023-04-01T11:36:32;1.17;;;0.60;;
74223;SDS011;62585;49.706;18.216;2023-04-01T11:39:22;0.80;;;0.57;;
74223;SDS011;62585;49.706;18.216;2023-04-01T11:42:01;0.45;;;0.45;;
74223;SDS011;62585;49.706;18.216;2023-04-01T11:44:51;0.55;;;0.47;;
74223;SDS011;62585;49.706;18.216;2023-04-01T12:01:16;3.10;;;0.60;;
74223;SDS011;62585;49.706;18.216;2023-04-01T12:06:57;1.45;;;0.90;;
74223;SDS011;62585;49.706;18.216;2023-04-01T12:26:15;1.20;;;0.68;;
74223;SDS011;62585;49.706;18.216;2023-04-01T12:34:26;0.68;;;0.68;;
74223;SDS011;62585;49.706;18.216;2023-04-01T12:43:05;1.70;;;0.82;;
74223;SDS011;62585;49.706;18.216;2023-04-01T12:45:56;1.30;;;0.93;;
74223;SDS011;62585;49.706;18.216;2023-04-01T12:54:18;1.27;;;0.90;;
74223;SDS011;62585;49.706;18.216;2023-04-01T12:57:05;1.08;;;0.68;;
74223;SDS011;62585;49.706;18.216;2023-04-01T13:05:35;1.15;;;0.60;;
74223;SDS011;62585;49.706;18.216;2023-04-01T13:11:04;1.52;;;1.02;;
74223;SDS011;62585;49.706;18.216;2023-04-01T13:16:53;0.73;;;0.70;;
74223;SDS011;62585;49.706;18.216;2023-04-01T13:19:21;1.17;;;0.57;;
74223;SDS011;62585;49.706;18.216;2023-04-01T13:22:04;0.80;;;0.40;;
74223;SDS011;62585;49.706;18.216;2023-04-01T13:27:45;0.50;;;0.50;;
74223;SDS011;62585;49.706;18.216;2023-04-01T13:36:00;1.13;;;0.55;;
74223;SDS011;62585;49.706;18.216;2023-04-01T13:44:15;1.25;;;0.73;;
74223;SDS011;62585;49.706;18.216;2023-04-01T14:09:30;1.92;;;0.80;;
74223;SDS011;62585;49.706;18.216;2023-04-01T14:12:04;2.97;;;1.63;;
74223;SDS011;62585;49.706;18.216;2023-04-01T14:17:33;2.42;;;1.20;;
74223;SDS011;62585;49.706;18.216;2023-04-01T14:20:41;2.05;;;0.90;;
74223;SDS011;62585;49.706;18.216;2023-04-01T14:23:36;1.40;;;0.85;;
74223;SDS011;62585;49.706;18.216;2023-04-01T14:32:02;0.60;;;0.60;;
74223;SDS011;62585;49.706;18.216;2023-04-01T14:40:27;0.68;;;0.68;;
74223;SDS011;62585;49.706;18.216;2023-04-01T14:43:20;1.52;;;0.73;;
74223;SDS011;62585;49.706;18.216;2023-04-01T14:46:14;1.70;;;1.30;;
74223;SDS011;62585;49.706;18.216;2023-04-01T14:51:49;1.17;;;0.52;;
74223;SDS011;62585;49.706;18.216;2023-04-01T14:54:19;1.05;;;0.80;;
74223;SDS011;62585;49.706;18.216;2023-04-01T14:59:40;0.98;;;0.55;;
74223;SDS011;62585;49.706;18.216;2023-04-01T15:05:03;1.10;;;0.43;;
74223;SDS011;62585;49.706;18.216;2023-04-01T15:10:41;3.83;;;1.27;;
74223;SDS011;62585;49.706;18.216;2023-04-01T15:18:58;3.80;;;1.63;;
74223;SDS011;62585;49.706;18.216;2023-04-01T15:21:44;3.38;;;1.80;;
74223;SDS011;62585;49.706;18.216;2023-04-01T15:29:41;1.73;;;1.00;;
74223;SDS011;62585;49.706;18.216;2023-04-01T15:37:48;1.70;;;1.02;;
74223;SDS011;62585;49.706;18.216;2023-04-01T15:40:30;2.35;;;0.90;;
74223;SDS011;62585;49.706;18.216;2023-04-01T15:48:50;3.55;;;1.75;;
74223;SDS011;62585;49.706;18.216;2023-04-01T15:59:50;8.63;;;4.95;;
74223;SDS011;62585;49.706;18.216;2023-04-01T16:07:57;3.83;;;2.20;;
74223;SDS011;62585;49.706;18.216;2023-04-01T16:10:45;3.92;;;3.05;;
74223;SDS011;62585;49.706;18.216;2023-04-01T16:24:23;2.78;;;2.00;;
74223;SDS011;62585;49.706;18.216;2023-04-01T16:27:15;5.72;;;1.45;;
74223;SDS011;62585;49.706;18.216;2023-04-01T16:29:51;4.18;;;1.60;;
74223;SDS011;62585;49.706;18.216;2023-04-01T16:32:37;7.63;;;3.38;;
74223;SDS011;62585;49.706;18.216;2023-04-01T16:37:52;3.40;;;1.50;;
74223;SDS011;62585;49.706;18.216;2023-04-01T16:48:14;2.60;;;2.00;;
74223;SDS011;62585;49.706;18.216;2023-04-01T16:50:52;4.25;;;2.55;;
74223;SDS011;62585;49.706;18.216;2023-04-01T16:53:41;3.65;;;1.63;;
74223;SDS011;62585;49.706;18.216;2023-04-01T16:56:22;1.92;;;1.63;;
74223;SDS011;62585;49.706;18.216;2023-04-01T16:59:04;1.70;;;1.25;;
74223;SDS011;62585;49.706;18.216;2023-04-01T17:04:57;3.67;;;1.88;;
74223;SDS011;62585;49.706;18.216;2023-04-01T17:10:02;3.30;;;1.60;;
74223;SDS011;62585;49.706;18.216;2023-04-01T17:12:42;2.40;;;1.05;;
74223;SDS011;62585;49.706;18.216;2023-04-01T17:21:00;0.70;;;0.50;;
74223;SDS011;62585;49.706;18.216;2023-04-01T17:23:32;2.03;;;1.35;;
74223;SDS011;62585;49.706;18.216;2023-04-01T17:26:16;1.65;;;1.17;;
74223;SDS011;62585;49.706;18.216;2023-04-01T17:28:50;1.67;;;1.13;;
74223;SDS011;62585;49.706;18.216;2023-04-01T17:31:37;1.23;;;0.95;;
74223;SDS011;62585;49.706;18.216;2023-04-01T17:36:58;4.25;;;1.15;;
74223;SDS011;62585;49.706;18.216;2023-04-01T17:39:38;1.85;;;1.35;;
74223;SDS011;62585;49.706;18.216;2023-04-01T17:42:20;1.17;;;0.80;;
74223;SDS011;62585;49.706;18.216;2023-04-01T17:56:14;2.50;;;1.02;;
74223;SDS011;62585;49.706;18.216;2023-04-01T18:07:21;4.05;;;1.55;;
74223;SDS011;62585;49.706;18.216;2023-04-01T18:26:23;5.63;;;2.67;;
74223;SDS011;62585;49.706;18.216;2023-04-01T18:28:57;5.45;;;2.25;;
74223;SDS011;62585;49.706;18.216;2023-04-01T18:31:34;4.30;;;2.72;;
74223;SDS011;62585;49.706;18.216;2023-04-01T18:34:13;3.05;;;2.17;;
74223;SDS011;62585;49.706;18.216;2023-04-01T18:36:59;5.43;;;2.90;;
74223;SDS011;62585;49.706;18.216;2023-04-01T18:39:40;6.90;;;2.78;;
74223;SDS011;62585;49.706;18.216;2023-04-01T18:44:59;6.53;;;2.40;;
74223;SDS011;62585;49.706;18.216;2023-04-01T18:47:57;6.93;;;2.97;;
74223;SDS011;62585;49.706;18.216;2023-04-01T18:50:30;6.30;;;3.25;;
74223;SDS011;62585;49.706;18.216;2023-04-01T18:56:02;3.90;;;2.15;;
74223;SDS011;62585;49.706;18.216;2023-04-01T18:58:35;3.90;;;2.05;;
74223;SDS011;62585;49.706;18.216;2023-04-01T19:03:48;3.97;;;2.20;;
74223;SDS011;62585;49.706;18.216;2023-04-01T19:09:23;5.43;;;3.10;;
74223;SDS011;62585;49.706;18.216;2023-04-01T19:12:30;4.10;;;2.55;;
74223;SDS011;62585;49.706;18.216;2023-04-01T19:18:13;3.80;;;2.25;;
74223;SDS011;62585;49.706;18.216;2023-04-01T19:31:30;5.25;;;2.22;;
74223;SDS011;62585;49.706;18.216;2023-04-01T19:41:50;3.78;;;2.25;;
74223;SDS011;62585;49.706;18.216;2023-04-01T20:00:34;6.47;;;2.03;;
74223;SDS011;62585;49.706;18.216;2023-04-01T20:05:39;3.53;;;2.25;;
74223;SDS011;62585;49.706;18.216;2023-04-01T20:08:27;4.57;;;1.90;;
74223;SDS011;62585;49.706;18.216;2023-04-01T20:13:29;5.75;;;2.85;;
74223;SDS011;62585;49.706;18.216;2023-04-01T20:16:20;8.82;;;3.72;;
74223;SDS011;62585;49.706;18.216;2023-04-01T20:18:59;7.95;;;3.30;;
74223;SDS011;62585;49.706;18.216;2023-04-01T20:21:37;4.97;;;2.53;;
74223;SDS011;62585;49.706;18.216;2023-04-01T20:27:24;3.58;;;2.05;;
74223;SDS011;62585;49.706;18.216;2023-04-01T20:29:56;4.78;;;2.60;;
74223;SDS011;62585;49.706;18.216;2023-04-01T20:44:09;11.20;;;5.15;;
74223;SDS011;62585;49.706;18.216;2023-04-01T20:52:18;8.30;;;4.03;;
74223;SDS011;62585;49.706;18.216;2023-04-01T20:57:45;8.40;;;3.88;;
74223;SDS011;62585;49.706;18.216;2023-04-01T21:00:38;8.75;;;4.63;;
74223;SDS011;62585;49.706;18.216;2023-04-01T21:06:14;9.43;;;4.30;;
74223;SDS011;62585;49.706;18.216;2023-04-01T21:09:02;6.38;;;3.70;;
74223;SDS011;62585;49.706;18.216;2023-04-01T21:42:42;7.47;;;2.85;;
74223;SDS011;62585;49.706;18.216;2023-04-01T21:50:45;5.18;;;2.67;;
74223;SDS011;62585;49.706;18.216;2023-04-01T22:26:04;6.10;;;3.05;;
74223;SDS011;62585;49.706;18.216;2023-04-01T22:28:34;6.70;;;4.05;;
74223;SDS011;62585;49.706;18.216;2023-04-01T22:31:08;6.18;;;3.78;;
74223;SDS011;62585;49.706;18.216;2023-04-01T22:44:04;5.10;;;3.42;;
74223;SDS011;62585;49.706;18.216;2023-04-01T22:49:20;6.05;;;3.90;;
74223;SDS011;62585;49.706;18.216;2023-04-01T22:52:09;9.88;;;4.10;;
74223;SDS011;62585;49.706;18.216;2023-04-01T22:54:48;8.05;;;3.53;;
74223;SDS011;62585;49.706;18.216;2023-04-01T22:57:32;6.47;;;3.67;;
74223;SDS011;62585;49.706;18.216;2023-04-01T23:00:10;5.63;;;4.10;;
74223;SDS011;62585;49.706;18.216;2023-04-01T23:05:59;6.88;;;3.75;;
74223;SDS011;62585;49.706;18.216;2023-04-01T23:11:54;5.22;;;3.30;;
74223;SDS011;62585;49.706;18.216;2023-04-01T23:19:24;7.50;;;4.18;;
74223;SDS011;62585;49.706;18.216;2023-04-01T23:24:38;5.90;;;4.32;;
74223;SDS011;62585;49.706;18.216;2023-04-01T23:27:20;7.55;;;3.65;;
74223;SDS011;62585;49.706;18.216;2023-04-01T23:29:57;6.03;;;4.72;;
74223;SDS011;62585;49.706;18.216;2023-04-01T23:32:23;7.93;;;4.50;;
74223;SDS011;62585;49.706;18.216;2023-04-01T23:34:54;7.22;;;4.35;;
74223;SDS011;62585;49.706;18.216;2023-04-01T23:37:22;8.68;;;4.05;;
74223;SDS011;62585;49.706;18.216;2023-04-01T23:39:49;7.68;;;4.45;;
74223;SDS011;62585;49.706;18.216;2023-04-01T23:42:27;8.73;;;3.90;;
74223;SDS011;62585;49.706;18.216;2023-04-01T23:45:03;9.32;;;4.57;;
74223;SDS011;62585;49.706;18.216;2023-04-01T23:47:37;7.05;;;4.50;;
74223;SDS011;62585;49.706;18.216;2023-04-01T23:52:48;8.00;;;3.97;;
74223;SDS011;62585;49.706;18.216;2023-04-01T23:55:23;8.57;;;3.65;;
